Time;durP1;ratioP1;P1;durP2;ratioP2;P2;SDS_P1;SDS_P2;PMS_P1;PMS_P2;Temp;Humidity;BMP_temperature;BMP_pressure;BME280_temperature;BME280_humidity;BME280_pressure;Samples;Min_cycle;Max_cycle;Signal;HPM_P1;HPM_P2
2024/02/02 00:01:52;;;;;;;30.50;7.30;;;;;;;;;;5023800;28;20245;-74
2024/02/02 00:04:17;;;;;;;33.63;8.00;;;;;;;;;;5034634;28;20266;-74
2024/02/02 00:06:43;;;;;;;37.30;7.53;;;;;;;;;;5034675;28;20548;-74
2024/02/02 00:09:09;;;;;;;27.37;7.07;;;;;;;;;;5041381;28;20564;-74
2024/02/02 00:11:34;;;;;;;30.47;7.63;;;;;;;;;;5032357;28;20589;-74
2024/02/02 00:14:00;;;;;;;31.90;8.07;;;;;;;;;;5040138;28;20185;-74
2024/02/02 00:16:26;;;;;;;34.53;9.80;;;;;;;;;;5048455;28;20229;-74
2024/02/02 00:18:51;;;;;;;37.33;8.03;;;;;;;;;;5042016;28;20221;-74
2024/02/02 00:21:16;;;;;;;32.33;8.63;;;;;;;;;;5035004;28;20186;-73
2024/02/02 00:23:42;;;;;;;36.23;10.20;;;;;;;;;;5030481;28;20194;-73
2024/02/02 00:26:08;;;;;;;31.20;9.20;;;;;;;;;;5031033;28;20264;-73
2024/02/02 00:28:33;;;;;;;40.47;9.55;;;;;;;;;;5044169;28;20186;-73
2024/02/02 00:30:58;;;;;;;31.40;8.80;;;;;;;;;;5043156;28;20181;-73
2024/02/02 00:33:24;;;;;;;35.37;9.73;;;;;;;;;;5037508;28;20391;-73
2024/02/02 00:35:49;;;;;;;39.57;9.30;;;;;;;;;;5030535;28;20216;-73
2024/02/02 00:38:15;;;;;;;41.87;9.47;;;;;;;;;;5046749;28;20200;-73
2024/02/02 00:40:40;;;;;;;33.23;9.43;;;;;;;;;;5037466;28;20177;-73
2024/02/02 00:43:06;;;;;;;41.50;10.30;;;;;;;;;;5042346;28;20194;-73
2024/02/02 00:45:31;;;;;;;32.37;9.93;;;;;;;;;;5037239;28;20241;-73
2024/02/02 00:47:56;;;;;;;34.53;10.10;;;;;;;;;;5035937;28;20182;-73
2024/02/02 00:50:22;;;;;;;39.10;9.97;;;;;;;;;;5041036;28;20169;-73
2024/02/02 00:52:48;;;;;;;31.67;8.80;;;;;;;;;;5038034;28;20696;-73
2024/02/02 00:55:13;;;;;;;36.97;9.93;;;;;;;;;;5048074;28;20201;-73
2024/02/02 00:57:39;;;;;;;32.20;10.00;;;;;;;;;;5047118;28;20279;-73
2024/02/02 01:00:10;;;;;;;36.60;10.20;;;;;;;;;;5032697;28;20733;-73
2024/02/02 01:02:36;;;;;;;31.90;9.17;;;;;;;;;;5033422;28;20722;-72
2024/02/02 01:05:02;;;;;;;36.23;10.20;;;;;;;;;;5042697;28;20701;-73
2024/02/02 01:07:27;;;;;;;38.30;10.00;;;;;;;;;;5028499;28;20203;-73
2024/02/02 01:09:53;;;;;;;29.00;10.13;;;;;;;;;;5049734;28;20259;-72
2024/02/02 01:12:19;;;;;;;31.50;9.73;;;;;;;;;;5043803;28;20215;-72
2024/02/02 01:14:44;;;;;;;40.63;9.83;;;;;;;;;;5043579;28;20224;-72
2024/02/02 01:17:10;;;;;;;35.37;9.47;;;;;;;;;;5033091;28;20296;-72
2024/02/02 01:19:36;;;;;;;41.53;9.60;;;;;;;;;;5040502;28;20206;-73
2024/02/02 01:22:02;;;;;;;28.23;9.53;;;;;;;;;;5035091;28;20193;-72
2024/02/02 01:24:27;;;;;;;35.67;8.97;;;;;;;;;;5045212;28;20194;-72
2024/02/02 01:26:53;;;;;;;35.10;9.77;;;;;;;;;;5040216;28;20193;-73
2024/02/02 01:29:18;;;;;;;36.37;10.20;;;;;;;;;;5028338;28;20182;-72
2024/02/02 01:31:44;;;;;;;37.80;9.23;;;;;;;;;;5036271;28;20193;-72
2024/02/02 01:34:09;;;;;;;32.90;8.30;;;;;;;;;;5040184;28;20236;-72
2024/02/02 01:36:36;;;;;;;28.17;9.20;;;;;;;;;;5041015;28;20199;-73
2024/02/02 01:39:03;;;;;;;33.25;8.85;;;;;;;;;;5041399;28;20267;-72
2024/02/02 01:41:28;;;;;;;33.90;8.87;;;;;;;;;;5033788;28;20209;-72
2024/02/02 01:43:54;;;;;;;34.03;9.40;;;;;;;;;;5040553;28;20213;-72
2024/02/02 01:46:19;;;;;;;32.93;8.80;;;;;;;;;;5037747;28;20197;-72
2024/02/02 01:48:45;;;;;;;27.63;8.43;;;;;;;;;;5032501;28;20221;-72
2024/02/02 01:51:11;;;;;;;32.60;8.87;;;;;;;;;;5035439;28;20309;-72
2024/02/02 01:53:37;;;;;;;31.77;8.40;;;;;;;;;;5028525;28;20190;-72
2024/02/02 01:56:03;;;;;;;32.27;8.27;;;;;;;;;;5028049;28;20746;-72
2024/02/02 01:58:28;;;;;;;30.57;7.57;;;;;;;;;;5037630;28;20194;-72
2024/02/02 02:00:54;;;;;;;30.40;8.50;;;;;;;;;;5044667;28;20189;-73
2024/02/02 02:03:19;;;;;;;31.50;7.47;;;;;;;;;;5019644;28;20265;-72
2024/02/02 02:05:45;;;;;;;27.00;9.07;;;;;;;;;;5030811;28;20193;-72
2024/02/02 02:08:10;;;;;;;32.57;7.80;;;;;;;;;;5046409;28;20715;-72
2024/02/02 02:10:36;;;;;;;26.23;8.30;;;;;;;;;;5037970;28;20228;-72
2024/02/02 02:13:02;;;;;;;25.60;7.73;;;;;;;;;;5028522;28;20569;-72
2024/02/02 02:15:28;;;;;;;31.37;7.60;;;;;;;;;;5031576;28;20225;-72
2024/02/02 02:17:53;;;;;;;29.57;7.77;;;;;;;;;;5029239;28;20303;-72
2024/02/02 02:20:25;;;;;;;29.63;7.20;;;;;;;;;;5032736;28;20603;-73
2024/02/02 02:22:51;;;;;;;25.70;7.10;;;;;;;;;;5040838;28;20186;-73
2024/02/02 02:25:17;;;;;;;19.17;6.17;;;;;;;;;;5044676;28;20186;-73
2024/02/02 02:27:43;;;;;;;30.73;7.63;;;;;;;;;;5035902;28;20193;-73
2024/02/02 02:30:09;;;;;;;37.37;8.23;;;;;;;;;;5032422;28;20276;-73
2024/02/02 02:32:35;;;;;;;23.53;7.37;;;;;;;;;;5036830;28;20718;-73
2024/02/02 02:35:00;;;;;;;26.17;7.30;;;;;;;;;;5033085;28;20231;-73
2024/02/02 02:37:26;;;;;;;29.47;7.70;;;;;;;;;;5044856;28;20224;-73
2024/02/02 02:39:51;;;;;;;26.70;7.97;;;;;;;;;;5041507;28;20193;-73
2024/02/02 02:42:17;;;;;;;32.17;7.40;;;;;;;;;;5039053;28;20186;-73
2024/02/02 02:44:42;;;;;;;35.03;7.77;;;;;;;;;;5048575;28;20245;-73
2024/02/02 02:47:08;;;;;;;22.33;6.30;;;;;;;;;;5039680;28;20182;-73
2024/02/02 02:49:33;;;;;;;33.97;7.67;;;;;;;;;;5035309;28;20194;-73
2024/02/02 02:51:59;;;;;;;30.40;7.77;;;;;;;;;;5038726;28;20181;-74
2024/02/02 02:54:24;;;;;;;23.10;7.43;;;;;;;;;;5030183;28;20194;-73
2024/02/02 02:56:50;;;;;;;26.87;7.83;;;;;;;;;;5041246;28;20272;-73
2024/02/02 02:59:16;;;;;;;31.57;7.60;;;;;;;;;;5029129;28;20189;-73
2024/02/02 03:01:43;;;;;;;32.60;9.15;;;;;;;;;;5042553;28;20195;-73
2024/02/02 03:04:09;;;;;;;27.48;8.07;;;;;;;;;;5037559;28;20236;-73
2024/02/02 03:06:34;;;;;;;25.67;7.60;;;;;;;;;;5038410;28;20574;-73
2024/02/02 03:09:00;;;;;;;29.67;8.17;;;;;;;;;;5028162;28;20664;-73
2024/02/02 03:11:25;;;;;;;31.97;7.57;;;;;;;;;;5030221;28;20202;-73
2024/02/02 03:13:51;;;;;;;29.67;8.33;;;;;;;;;;5051939;28;20208;-72
2024/02/02 03:16:16;;;;;;;25.23;7.10;;;;;;;;;;5036421;28;20291;-72
2024/02/02 03:18:42;;;;;;;33.87;8.43;;;;;;;;;;5040799;28;20280;-73
2024/02/02 03:21:08;;;;;;;29.53;7.20;;;;;;;;;;5031441;28;20247;-73
2024/02/02 03:23:33;;;;;;;21.37;7.60;;;;;;;;;;5047708;28;20182;-73
2024/02/02 03:25:59;;;;;;;27.87;8.20;;;;;;;;;;5048436;28;20551;-73
2024/02/02 03:28:24;;;;;;;28.60;8.20;;;;;;;;;;5037726;28;20197;-73
2024/02/02 03:30:50;;;;;;;32.47;8.90;;;;;;;;;;5040147;28;20291;-73
2024/02/02 03:33:15;;;;;;;25.13;8.63;;;;;;;;;;5044393;28;20189;-73
2024/02/02 03:35:41;;;;;;;32.70;9.30;;;;;;;;;;5040885;28;20212;-73
2024/02/02 03:38:06;;;;;;;32.43;9.90;;;;;;;;;;5042725;28;20184;-73
2024/02/02 03:40:31;;;;;;;30.53;8.70;;;;;;;;;;5041100;28;20193;-73
2024/02/02 03:42:57;;;;;;;32.67;9.07;;;;;;;;;;5038262;28;20185;-73
2024/02/02 03:45:22;;;;;;;38.70;10.37;;;;;;;;;;5039558;28;20677;-72
2024/02/02 03:47:48;;;;;;;30.83;9.93;;;;;;;;;;5035843;28;20667;-73
2024/02/02 03:50:13;;;;;;;33.57;9.63;;;;;;;;;;5033787;28;20194;-73
2024/02/02 03:52:39;;;;;;;32.67;8.80;;;;;;;;;;5044579;28;20190;-72
2024/02/02 03:55:05;;;;;;;28.27;8.50;;;;;;;;;;5039440;28;20186;-72
2024/02/02 03:57:30;;;;;;;27.47;10.00;;;;;;;;;;5039756;28;20564;-73
2024/02/02 03:59:56;;;;;;;30.93;8.90;;;;;;;;;;5032859;28;20705;-73
2024/02/02 04:02:21;;;;;;;30.00;9.67;;;;;;;;;;5048795;28;20290;-73
2024/02/02 04:04:47;;;;;;;32.33;10.37;;;;;;;;;;5042277;28;20217;-73
2024/02/02 04:07:12;;;;;;;32.83;10.40;;;;;;;;;;5045262;28;20192;-73
2024/02/02 04:09:38;;;;;;;29.87;8.90;;;;;;;;;;5046521;28;20189;-73
2024/02/02 04:12:04;;;;;;;30.03;8.77;;;;;;;;;;5044484;28;20233;-73
2024/02/02 04:14:29;;;;;;;33.50;8.83;;;;;;;;;;5041199;28;20182;-73
2024/02/02 04:16:55;;;;;;;31.43;9.77;;;;;;;;;;5038142;28;20229;-73
2024/02/02 04:19:21;;;;;;;33.07;8.83;;;;;;;;;;5037465;28;20209;-73
2024/02/02 04:21:46;;;;;;;27.30;8.53;;;;;;;;;;5042729;28;20265;-73
2024/02/02 04:24:12;;;;;;;26.20;8.37;;;;;;;;;;5038214;28;20641;-73
2024/02/02 04:26:37;;;;;;;27.07;8.17;;;;;;;;;;5038435;28;20525;-72
2024/02/02 04:29:04;;;;;;;22.60;8.40;;;;;;;;;;5049609;28;20212;-73
2024/02/02 04:31:29;;;;;;;26.00;8.17;;;;;;;;;;5042908;28;20220;-73
2024/02/02 04:33:55;;;;;;;27.33;8.23;;;;;;;;;;5045736;28;20221;-72
2024/02/02 04:36:20;;;;;;;21.93;7.33;;;;;;;;;;5046771;28;20228;-73
2024/02/02 04:38:46;;;;;;;31.70;8.60;;;;;;;;;;5035688;28;20197;-73
2024/02/02 04:41:11;;;;;;;30.03;9.23;;;;;;;;;;5022789;28;20243;-74
2024/02/02 04:43:37;;;;;;;22.20;7.93;;;;;;;;;;5032945;28;20186;-74
2024/02/02 04:46:02;;;;;;;25.57;8.23;;;;;;;;;;5046573;28;20194;-74
2024/02/02 04:48:27;;;;;;;27.33;8.13;;;;;;;;;;5032999;28;20197;-74
2024/02/02 04:50:53;;;;;;;26.40;8.63;;;;;;;;;;5035034;28;20197;-74
2024/02/02 04:53:18;;;;;;;24.27;8.50;;;;;;;;;;5039362;28;20190;-74
2024/02/02 04:55:44;;;;;;;23.50;8.47;;;;;;;;;;5033933;28;20239;-73
2024/02/02 04:58:09;;;;;;;21.50;8.17;;;;;;;;;;5041523;28;20269;-73
2024/02/02 05:00:38;;;;;;;26.07;8.10;;;;;;;;;;5029516;28;20190;-73
2024/02/02 05:03:03;;;;;;;21.03;8.67;;;;;;;;;;5044608;28;20222;-73
2024/02/02 05:05:29;;;;;;;24.43;8.90;;;;;;;;;;5048449;28;20270;-73
2024/02/02 05:07:54;;;;;;;29.53;8.97;;;;;;;;;;5041675;28;20635;-73
2024/02/02 05:10:20;;;;;;;27.47;8.50;;;;;;;;;;5044104;28;20214;-73
2024/02/02 05:12:45;;;;;;;28.07;8.87;;;;;;;;;;5036500;28;20595;-73
2024/02/02 05:15:11;;;;;;;28.47;8.83;;;;;;;;;;5043446;28;20609;-73
2024/02/02 05:17:36;;;;;;;30.30;8.90;;;;;;;;;;5043856;28;20228;-73
2024/02/02 05:20:04;;;;;;;26.23;8.43;;;;;;;;;;5046860;28;20329;-73
2024/02/02 05:22:29;;;;;;;25.63;8.97;;;;;;;;;;5037990;28;20177;-74
2024/02/02 05:24:55;;;;;;;32.50;9.50;;;;;;;;;;5021677;28;20558;-73
2024/02/02 05:27:20;;;;;;;27.30;9.03;;;;;;;;;;5042291;28;20182;-74
2024/02/02 05:29:48;;;;;;;23.50;8.77;;;;;;;;;;5046997;28;20181;-73
2024/02/02 05:32:13;;;;;;;26.03;8.73;;;;;;;;;;5021293;28;20731;-73
2024/02/02 05:34:40;;;;;;;29.27;9.93;;;;;;;;;;5050490;28;20186;-74
2024/02/02 05:37:06;;;;;;;36.57;9.87;;;;;;;;;;5036453;28;20220;-74
2024/02/02 05:39:32;;;;;;;33.60;9.90;;;;;;;;;;5040670;28;20197;-73
2024/02/02 05:41:57;;;;;;;21.60;8.90;;;;;;;;;;5038571;28;20675;-73
2024/02/02 05:44:23;;;;;;;31.70;9.43;;;;;;;;;;5037832;28;20196;-74
2024/02/02 05:46:48;;;;;;;29.83;9.87;;;;;;;;;;5035431;28;20481;-74
2024/02/02 05:49:14;;;;;;;32.07;9.73;;;;;;;;;;5033172;28;20255;-73
2024/02/02 05:51:39;;;;;;;29.83;8.83;;;;;;;;;;5040723;28;20186;-73
2024/02/02 05:54:04;;;;;;;26.83;8.60;;;;;;;;;;5047149;28;20660;-73
2024/02/02 05:56:30;;;;;;;35.17;10.30;;;;;;;;;;5039256;28;20202;-72
2024/02/02 05:58:55;;;;;;;29.10;8.53;;;;;;;;;;5016272;28;20597;-73
2024/02/02 06:01:21;;;;;;;27.30;9.40;;;;;;;;;;5039658;28;20262;-72
2024/02/02 06:03:46;;;;;;;22.93;8.43;;;;;;;;;;5011080;28;20209;-72
2024/02/02 06:06:12;;;;;;;25.83;9.37;;;;;;;;;;5028230;28;20208;-72
2024/02/02 06:08:37;;;;;;;24.80;9.10;;;;;;;;;;5028898;28;20178;-72
2024/02/02 06:11:06;;;;;;;25.17;8.57;;;;;;;;;;5035517;28;20178;-73
2024/02/02 06:13:32;;;;;;;28.67;8.77;;;;;;;;;;5036017;28;20313;-72
2024/02/02 06:15:58;;;;;;;29.07;9.07;;;;;;;;;;5034328;28;20545;-73
2024/02/02 06:18:23;;;;;;;39.20;9.53;;;;;;;;;;5038585;28;20240;-72
2024/02/02 06:20:49;;;;;;;22.97;8.77;;;;;;;;;;5038677;28;20236;-72
2024/02/02 06:23:14;;;;;;;30.67;9.23;;;;;;;;;;5031695;28;20183;-73
2024/02/02 06:25:40;;;;;;;33.13;9.47;;;;;;;;;;5034552;28;20181;-73
2024/02/02 06:28:06;;;;;;;30.60;8.90;;;;;;;;;;5039383;28;20405;-73
2024/02/02 06:30:32;;;;;;;25.10;9.40;;;;;;;;;;5039638;28;20194;-73
2024/02/02 06:32:59;;;;;;;35.13;10.00;;;;;;;;;;5032361;28;20244;-72
2024/02/02 06:35:29;;;;;;;30.53;8.97;;;;;;;;;;5033422;28;20730;-72
2024/02/02 06:37:54;;;;;;;22.73;8.73;;;;;;;;;;5040904;28;20186;-72
2024/02/02 06:40:20;;;;;;;25.10;9.77;;;;;;;;;;5038946;28;20193;-72
2024/02/02 06:42:45;;;;;;;32.23;10.17;;;;;;;;;;5035924;28;20185;-72
2024/02/02 06:45:11;;;;;;;24.40;9.10;;;;;;;;;;5044706;28;20244;-73
2024/02/02 06:47:38;;;;;;;27.30;9.37;;;;;;;;;;5040595;28;20254;-73
2024/02/02 06:50:04;;;;;;;28.87;9.30;;;;;;;;;;5034276;28;20181;-72
2024/02/02 06:52:30;;;;;;;23.73;8.40;;;;;;;;;;5041791;28;20181;-73
2024/02/02 06:54:56;;;;;;;30.63;8.27;;;;;;;;;;5045059;28;20537;-72
2024/02/02 06:57:21;;;;;;;30.60;9.13;;;;;;;;;;5043755;28;20301;-73
2024/02/02 06:59:50;;;;;;;26.37;8.57;;;;;;;;;;5040695;28;20684;-72
2024/02/02 07:02:21;;;;;;;26.13;7.73;;;;;;;;;;5038983;28;20193;-73
2024/02/02 07:04:47;;;;;;;19.23;7.07;;;;;;;;;;5034958;28;20626;-73
2024/02/02 07:07:13;;;;;;;25.80;7.77;;;;;;;;;;5035193;28;20182;-73
2024/02/02 07:09:39;;;;;;;27.00;8.13;;;;;;;;;;5036695;28;20240;-73
2024/02/02 07:12:06;;;;;;;22.30;8.13;;;;;;;;;;5030288;28;20198;-72
2024/02/02 07:14:43;;;;;;;21.70;6.97;;;;;;;;;;5034638;28;20327;-72
2024/02/02 07:17:38;;;;;;;25.87;8.57;;;;;;;;;;5040372;28;20225;-72
2024/02/02 07:20:09;;;;;;;18.87;6.83;;;;;;;;;;5041283;28;20240;-73
2024/02/02 07:22:40;;;;;;;22.77;7.23;;;;;;;;;;5041341;28;20186;-72
2024/02/02 07:25:17;;;;;;;31.33;7.10;;;;;;;;;;5038102;28;20193;-73
2024/02/02 07:28:03;;;;;;;33.70;7.13;;;;;;;;;;5044031;28;20187;-72
2024/02/02 07:30:51;;;;;;;28.63;7.37;;;;;;;;;;5030309;28;20190;-72
2024/02/02 07:33:25;;;;;;;25.70;7.67;;;;;;;;;;5032892;28;20186;-72
2024/02/02 07:35:52;;;;;;;32.63;7.47;;;;;;;;;;5037581;28;20205;-72
2024/02/02 07:38:23;;;;;;;27.13;6.80;;;;;;;;;;5032315;28;20220;-72
2024/02/02 07:41:10;;;;;;;24.27;7.20;;;;;;;;;;5028031;28;20183;-72
2024/02/02 07:43:36;;;;;;;29.40;7.30;;;;;;;;;;5032180;28;20667;-72
2024/02/02 07:46:03;;;;;;;23.37;6.33;;;;;;;;;;5040317;28;20231;-72
2024/02/02 07:48:29;;;;;;;20.50;6.13;;;;;;;;;;5037661;28;20657;-72
2024/02/02 07:50:54;;;;;;;31.83;7.50;;;;;;;;;;5036074;28;20191;-72
2024/02/02 07:53:20;;;;;;;18.10;7.05;;;;;;;;;;5032971;28;20212;-72
2024/02/02 07:55:45;;;;;;;19.33;6.63;;;;;;;;;;5032510;28;20205;-72
2024/02/02 07:58:11;;;;;;;21.60;6.05;;;;;;;;;;5030927;28;20529;-72
2024/02/02 08:00:36;;;;;;;34.40;7.32;;;;;;;;;;5038090;28;20680;-72
2024/02/02 08:03:02;;;;;;;28.27;7.68;;;;;;;;;;5034376;28;20193;-72
2024/02/02 08:05:28;;;;;;;27.43;7.63;;;;;;;;;;5033351;28;20186;-72
2024/02/02 08:07:53;;;;;;;25.27;7.43;;;;;;;;;;5037466;28;20182;-72
2024/02/02 08:10:19;;;;;;;27.83;8.05;;;;;;;;;;5030082;28;20587;-73
2024/02/02 08:12:44;;;;;;;30.98;8.55;;;;;;;;;;5035039;28;20217;-72
2024/02/02 08:15:10;;;;;;;30.30;8.60;;;;;;;;;;5042297;28;20193;-72
2024/02/02 08:17:35;;;;;;;30.95;8.77;;;;;;;;;;5041810;28;20225;-72
2024/02/02 08:20:01;;;;;;;28.80;8.43;;;;;;;;;;5025432;28;20202;-72
2024/02/02 08:22:26;;;;;;;33.47;8.77;;;;;;;;;;5034205;28;20208;-72
2024/02/02 08:24:52;;;;;;;22.77;8.35;;;;;;;;;;5033016;28;20227;-72
2024/02/02 08:27:20;;;;;;;24.25;9.50;;;;;;;;;;5033654;28;20202;-73
2024/02/02 08:29:47;;;;;;;27.35;9.95;;;;;;;;;;5036784;28;20372;-72
2024/02/02 08:32:13;;;;;;;33.72;10.45;;;;;;;;;;5040318;28;20221;-72
2024/02/02 08:34:38;;;;;;;28.17;10.52;;;;;;;;;;5045523;28;20278;-72
2024/02/02 08:37:04;;;;;;;25.10;11.38;;;;;;;;;;5040048;28;20201;-72
2024/02/02 08:39:34;;;;;;;26.65;11.25;;;;;;;;;;5047831;28;20197;-72
2024/02/02 08:42:01;;;;;;;27.88;12.23;;;;;;;;;;5035290;28;20182;-72
2024/02/02 08:44:32;;;;;;;33.45;11.65;;;;;;;;;;5044487;28;20217;-72
2024/02/02 08:46:57;;;;;;;26.75;11.40;;;;;;;;;;5045613;28;20342;-72
2024/02/02 08:49:26;;;;;;;28.30;12.80;;;;;;;;;;5019513;28;20217;-72
2024/02/02 08:51:51;;;;;;;36.13;13.30;;;;;;;;;;5037076;28;20668;-72
2024/02/02 08:54:35;;;;;;;33.28;11.55;;;;;;;;;;5045825;28;20197;-73
2024/02/02 08:57:22;;;;;;;36.63;12.88;;;;;;;;;;5037568;28;20623;-72
2024/02/02 08:59:52;;;;;;;44.22;14.93;;;;;;;;;;5035607;28;20835;-72
2024/02/02 09:02:55;;;;;;;29.27;11.63;;;;;;;;;;5038366;28;20270;-73
2024/02/02 09:05:27;;;;;;;28.88;11.70;;;;;;;;;;5031820;28;20229;-72
2024/02/02 09:08:21;;;;;;;30.15;11.65;;;;;;;;;;5035804;28;20507;-73
2024/02/02 09:10:59;;;;;;;33.20;11.63;;;;;;;;;;5046674;28;20662;-73
2024/02/02 09:13:28;;;;;;;40.95;12.57;;;;;;;;;;5037753;28;20268;-72
2024/02/02 09:15:54;;;;;;;33.17;11.85;;;;;;;;;;5032545;28;20213;-73
2024/02/02 09:18:33;;;;;;;38.15;12.80;;;;;;;;;;5036378;28;20234;-72
2024/02/02 09:20:59;;;;;;;32.85;12.20;;;;;;;;;;5038408;28;20208;-72
2024/02/02 09:23:25;;;;;;;34.00;12.25;;;;;;;;;;5026164;28;20629;-72
2024/02/02 09:25:51;;;;;;;43.40;12.67;;;;;;;;;;5035451;28;20425;-72
2024/02/02 09:28:25;;;;;;;34.30;12.27;;;;;;;;;;5031723;28;20438;-72
2024/02/02 09:30:57;;;;;;;37.97;11.80;;;;;;;;;;5028310;28;20193;-72
2024/02/02 09:33:32;;;;;;;30.73;11.73;;;;;;;;;;5039942;28;20200;-72
2024/02/02 09:35:59;;;;;;;33.15;11.30;;;;;;;;;;5020210;28;20232;-72
2024/02/02 09:38:25;;;;;;;26.85;11.70;;;;;;;;;;5036687;28;20650;-72
2024/02/02 09:41:45;;;;;;;29.63;11.98;;;;;;;;;;5029126;28;20185;-72
2024/02/02 09:44:46;;;;;;;30.33;12.65;;;;;;;;;;5038264;28;20206;-72
2024/02/02 09:48:04;;;;;;;28.20;12.00;;;;;;;;;;5041675;28;20586;-73
2024/02/02 09:50:44;;;;;;;36.10;12.38;;;;;;;;;;5037044;28;20536;-72
2024/02/02 09:53:32;;;;;;;35.53;11.50;;;;;;;;;;5030912;28;20197;-73
2024/02/02 09:56:15;;;;;;;33.65;11.43;;;;;;;;;;5045233;28;20224;-73
2024/02/02 09:59:26;;;;;;;33.55;11.65;;;;;;;;;;5048901;28;20193;-73
2024/02/02 10:02:10;;;;;;;36.28;12.65;;;;;;;;;;5032439;28;20186;-73
2024/02/02 10:04:51;;;;;;;30.13;12.40;;;;;;;;;;5031414;28;20190;-73
2024/02/02 10:07:41;;;;;;;38.08;12.65;;;;;;;;;;5033961;28;20594;-73
2024/02/02 10:10:34;;;;;;;33.03;12.77;;;;;;;;;;5039219;28;20276;-73
2024/02/02 10:13:17;;;;;;;27.60;12.25;;;;;;;;;;5029108;28;20186;-73
2024/02/02 10:16:23;;;;;;;34.28;13.18;;;;;;;;;;5039818;28;20690;-73
2024/02/02 10:19:03;;;;;;;37.78;12.93;;;;;;;;;;5038158;28;20768;-72
2024/02/02 10:21:38;;;;;;;36.03;12.48;;;;;;;;;;5024963;28;20568;-72
2024/02/02 10:24:54;;;;;;;34.38;13.07;;;;;;;;;;5025936;28;20228;-72
2024/02/02 10:27:37;;;;;;;36.30;13.65;;;;;;;;;;5023648;28;20190;-73
2024/02/02 10:30:16;;;;;;;32.30;12.32;;;;;;;;;;5032516;28;20181;-72
2024/02/02 10:32:45;;;;;;;21.90;12.40;;;;;;;;;;5042229;28;20270;-71
2024/02/02 10:35:49;;;;;;;35.78;12.40;;;;;;;;;;5039859;28;20197;-72
2024/02/02 10:38:30;;;;;;;25.27;11.52;;;;;;;;;;5042460;28;20308;-72
2024/02/02 10:41:04;;;;;;;34.63;11.73;;;;;;;;;;5034186;28;20211;-72
2024/02/02 10:44:02;;;;;;;41.20;12.85;;;;;;;;;;5032561;28;20543;-72
2024/02/02 10:46:45;;;;;;;28.70;10.68;;;;;;;;;;5042617;28;20233;-72
2024/02/02 10:49:35;;;;;;;29.65;10.93;;;;;;;;;;5026591;28;20200;-72
2024/02/02 10:52:19;;;;;;;32.72;11.57;;;;;;;;;;5031584;28;20592;-72
2024/02/02 10:55:08;;;;;;;26.38;10.15;;;;;;;;;;5035268;28;20264;-73
2024/02/02 10:58:14;;;;;;;40.40;11.85;;;;;;;;;;5039790;28;20197;-72
2024/02/02 11:01:07;;;;;;;29.27;11.07;;;;;;;;;;5041974;28;20255;-72
2024/02/02 11:03:40;;;;;;;27.52;10.27;;;;;;;;;;5044400;28;20197;-72
2024/02/02 11:06:34;;;;;;;32.53;10.77;;;;;;;;;;5042039;28;20557;-72
2024/02/02 11:09:22;;;;;;;26.80;10.38;;;;;;;;;;5039922;28;20273;-72
2024/02/02 11:11:57;;;;;;;33.10;10.50;;;;;;;;;;5039177;28;20246;-72
2024/02/02 11:14:49;;;;;;;33.58;11.85;;;;;;;;;;5042435;28;20272;-72
2024/02/02 11:17:34;;;;;;;33.83;11.32;;;;;;;;;;5029430;28;20226;-72
2024/02/02 11:20:38;;;;;;;32.13;11.60;;;;;;;;;;5035067;28;20205;-72
2024/02/02 11:23:20;;;;;;;28.05;10.50;;;;;;;;;;5033458;28;20194;-72
2024/02/02 11:25:56;;;;;;;34.67;12.25;;;;;;;;;;5030520;28;20178;-72
2024/02/02 11:28:49;;;;;;;32.05;12.38;;;;;;;;;;5026094;28;20192;-72
2024/02/02 11:31:47;;;;;;;33.80;12.65;;;;;;;;;;5025471;28;20252;-72
2024/02/02 11:34:29;;;;;;;33.45;12.27;;;;;;;;;;5030727;28;20626;-71
2024/02/02 11:37:26;;;;;;;34.15;12.68;;;;;;;;;;5033136;28;20394;-72
2024/02/02 11:40:08;;;;;;;34.00;13.13;;;;;;;;;;5040097;28;20236;-72
2024/02/02 11:42:36;;;;;;;30.40;12.52;;;;;;;;;;5028656;28;20549;-73
2024/02/02 11:45:02;;;;;;;36.83;13.25;;;;;;;;;;5043574;28;20189;-72
2024/02/02 11:47:32;;;;;;;48.58;13.75;;;;;;;;;;5038988;28;20182;-72
2024/02/02 11:50:05;;;;;;;35.15;13.18;;;;;;;;;;5035557;28;20182;-73
2024/02/02 11:52:38;;;;;;;33.70;14.15;;;;;;;;;;5040595;28;20183;-73
2024/02/02 11:55:22;;;;;;;37.47;13.20;;;;;;;;;;5043396;28;20283;-75
2024/02/02 11:57:53;;;;;;;41.20;14.13;;;;;;;;;;5037401;28;20190;-74
2024/02/02 12:00:57;;;;;;;30.48;13.27;;;;;;;;;;5029590;28;20198;-72
2024/02/02 12:03:52;;;;;;;34.92;14.23;;;;;;;;;;5039859;28;20186;-73
2024/02/02 12:06:19;;;;;;;41.50;13.90;;;;;;;;;;5040474;28;20205;-73
2024/02/02 12:09:03;;;;;;;40.78;13.88;;;;;;;;;;5040676;28;20192;-72
2024/02/02 12:11:37;;;;;;;38.88;13.65;;;;;;;;;;5039471;28;20264;-73
2024/02/02 12:14:14;;;;;;;34.10;13.90;;;;;;;;;;5045757;28;20629;-73
2024/02/02 12:16:40;;;;;;;33.47;13.35;;;;;;;;;;5046406;28;20213;-73
2024/02/02 12:19:05;;;;;;;28.02;13.52;;;;;;;;;;5042303;28;20577;-73
2024/02/02 12:21:30;;;;;;;36.05;13.25;;;;;;;;;;5035516;28;20198;-74
2024/02/02 12:23:56;;;;;;;35.22;14.05;;;;;;;;;;5042413;28;20624;-73
2024/02/02 12:26:22;;;;;;;32.33;13.65;;;;;;;;;;5047487;28;20186;-73
2024/02/02 12:28:48;;;;;;;34.42;14.13;;;;;;;;;;5036624;28;20633;-73
2024/02/02 12:31:13;;;;;;;37.55;13.40;;;;;;;;;;5047740;28;20193;-73
2024/02/02 12:33:39;;;;;;;35.15;13.90;;;;;;;;;;5034159;28;20186;-73
2024/02/02 12:36:04;;;;;;;31.73;13.70;;;;;;;;;;5035306;28;20214;-73
2024/02/02 12:38:30;;;;;;;37.25;13.02;;;;;;;;;;5030978;28;20205;-73
2024/02/02 12:40:56;;;;;;;35.15;13.15;;;;;;;;;;5047022;28;20188;-73
2024/02/02 12:43:24;;;;;;;28.65;12.82;;;;;;;;;;5039456;28;20280;-74
2024/02/02 12:45:51;;;;;;;38.10;13.73;;;;;;;;;;5043323;28;20186;-74
2024/02/02 12:48:17;;;;;;;31.98;12.90;;;;;;;;;;5026227;28;20220;-73
2024/02/02 12:50:43;;;;;;;35.50;13.27;;;;;;;;;;5039697;28;20641;-73
2024/02/02 12:53:10;;;;;;;32.58;12.70;;;;;;;;;;5037621;28;20203;-74
2024/02/02 12:55:35;;;;;;;33.20;13.02;;;;;;;;;;5046750;28;20259;-73
2024/02/02 12:58:01;;;;;;;38.00;13.05;;;;;;;;;;5045088;28;20233;-73
2024/02/02 13:00:27;;;;;;;29.80;13.00;;;;;;;;;;5037679;28;20281;-73
2024/02/02 13:02:52;;;;;;;38.15;12.85;;;;;;;;;;5050131;28;20199;-74
2024/02/02 13:05:19;;;;;;;33.22;13.20;;;;;;;;;;5043917;28;20619;-74
2024/02/02 13:07:47;;;;;;;40.85;13.88;;;;;;;;;;5035246;28;20227;-73
2024/02/02 13:10:13;;;;;;;31.05;13.10;;;;;;;;;;5018779;28;20193;-73
2024/02/02 13:12:46;;;;;;;42.78;13.90;;;;;;;;;;5049258;28;20648;-72
2024/02/02 13:15:13;;;;;;;34.75;14.30;;;;;;;;;;5043106;28;20206;-74
2024/02/02 13:17:40;;;;;;;35.63;14.20;;;;;;;;;;5037323;28;20661;-74
2024/02/02 13:20:16;;;;;;;33.72;13.88;;;;;;;;;;5040612;28;20341;-73
2024/02/02 13:22:50;;;;;;;34.95;13.85;;;;;;;;;;5044640;28;20546;-73
2024/02/02 13:25:24;;;;;;;37.65;14.13;;;;;;;;;;5046796;28;20578;-73
2024/02/02 13:27:52;;;;;;;38.38;14.55;;;;;;;;;;5047283;28;20216;-73
2024/02/02 13:30:22;;;;;;;37.00;15.20;;;;;;;;;;5042887;28;20181;-73
2024/02/02 13:32:48;;;;;;;34.30;14.57;;;;;;;;;;5035808;28;20401;-74
2024/02/02 13:35:22;;;;;;;43.35;15.70;;;;;;;;;;5036191;28;20731;-73
2024/02/02 13:37:51;;;;;;;41.55;15.50;;;;;;;;;;5028424;28;20193;-74
2024/02/02 13:40:17;;;;;;;41.72;15.63;;;;;;;;;;5039260;28;20688;-73
2024/02/02 13:42:46;;;;;;;44.53;16.85;;;;;;;;;;5038735;28;20260;-74
2024/02/02 13:45:16;;;;;;;33.08;15.55;;;;;;;;;;5042493;28;20744;-74
2024/02/02 13:47:42;;;;;;;46.92;16.45;;;;;;;;;;5041118;28;20243;-73
2024/02/02 13:50:29;;;;;;;36.03;15.23;;;;;;;;;;5039914;28;20228;-72
2024/02/02 13:52:57;;;;;;;40.40;15.57;;;;;;;;;;5045877;28;20263;-73
2024/02/02 13:55:27;;;;;;;41.92;16.13;;;;;;;;;;5038342;28;20531;-74
2024/02/02 13:57:55;;;;;;;49.45;17.15;;;;;;;;;;5040741;28;20533;-73
2024/02/02 14:00:21;;;;;;;48.90;16.60;;;;;;;;;;5041973;28;20316;-73
2024/02/02 14:02:46;;;;;;;46.47;16.80;;;;;;;;;;5040244;28;20189;-73
2024/02/02 14:05:12;;;;;;;42.58;16.77;;;;;;;;;;5038859;28;20193;-73
2024/02/02 14:07:38;;;;;;;46.83;18.20;;;;;;;;;;5028915;28;20198;-73
2024/02/02 14:10:06;;;;;;;39.35;16.13;;;;;;;;;;5025954;28;20565;-73
2024/02/02 14:12:38;;;;;;;43.05;16.83;;;;;;;;;;5024624;28;20182;-73
2024/02/02 14:15:05;;;;;;;39.15;15.05;;;;;;;;;;5026665;28;20550;-74
2024/02/02 14:17:31;;;;;;;47.28;16.33;;;;;;;;;;5024600;28;20225;-73
2024/02/02 14:20:15;;;;;;;51.05;17.10;;;;;;;;;;5025472;28;20332;-73
2024/02/02 14:22:42;;;;;;;44.28;17.02;;;;;;;;;;5025598;28;20267;-72
2024/02/02 14:25:08;;;;;;;45.75;17.40;;;;;;;;;;5026101;28;20185;-73
2024/02/02 14:27:37;;;;;;;49.55;17.40;;;;;;;;;;5026836;28;20592;-73
2024/02/02 14:30:05;;;;;;;50.15;16.50;;;;;;;;;;5042540;28;20181;-73
2024/02/02 14:32:31;;;;;;;39.78;17.13;;;;;;;;;;5042570;28;20189;-73
2024/02/02 14:34:57;;;;;;;39.53;16.90;;;;;;;;;;5042426;28;20185;-72
2024/02/02 14:37:23;;;;;;;44.95;17.05;;;;;;;;;;5042616;28;20729;-74
2024/02/02 14:39:50;;;;;;;39.78;16.90;;;;;;;;;;5040412;28;20186;-73
2024/02/02 14:42:16;;;;;;;46.08;16.30;;;;;;;;;;5039260;28;20216;-74